Ktima, Cyprus
Current Conditions -  °F | °C
As of 8:30 PM on Wednesday 26 Nov 2014 (Local Time) from LCPH Reporting Station
Scattered Clouds Scattered Clouds  
Wind Chill: 12°   Ceiling: Unl
Heat Index: 12°   Visibility: 6mi
Dew Point:   Wind: 7mph
Humidity: 67%   Direction: 350°N
Pressure: 29.88"   Gusts: NA
Location:  34.76°N, 32.42°E
Report Text: LCPH 261730Z 35006KT 9999 FEW030 SCT060 12/06 Q1012
Loading
Personal Weather Stations






























Interactive Weather Map New forecast layout! Learn more

10-Day Weather Forecast

Advertisements
Track Severe Weather on mobile